sensor_id;sensor_type;location;lat;lon;timestamp;pressure;altitude;pressure_sealevel;temperature;humidity
43691;BME280;29293;52.190;21.226;2023-06-10T00:09:18;100318.17;;;17.58;100.00
43691;BME280;29293;52.190;21.226;2023-06-10T00:24:26;100319.23;;;17.43;100.00
43691;BME280;29293;52.190;21.226;2023-06-10T00:39:33;100303.99;;;17.18;100.00
43691;BME280;29293;52.190;21.226;2023-06-10T00:54:40;100306.09;;;17.21;100.00
43691;BME280;29293;52.190;21.226;2023-06-10T01:09:55;100310.45;;;17.11;100.00
43691;BME280;29293;52.190;21.226;2023-06-10T01:25:07;100315.71;;;16.94;100.00
43691;BME280;29293;52.190;21.226;2023-06-10T01:40:15;100327.64;;;16.73;100.00
43691;BME280;29293;52.190;21.226;2023-06-10T01:55:22;100339.91;;;16.49;100.00
43691;BME280;29293;52.190;21.226;2023-06-10T02:10:28;100334.05;;;16.25;100.00
43691;BME280;29293;52.190;21.226;2023-06-10T02:25:35;100339.95;;;16.02;100.00
43691;BME280;29293;52.190;21.226;2023-06-10T02:40:42;100347.77;;;15.80;100.00
43691;BME280;29293;52.190;21.226;2023-06-10T02:55:49;100358.52;;;15.61;100.00
43691;BME280;29293;52.190;21.226;2023-06-10T03:10:56;100369.27;;;15.56;100.00
43691;BME280;29293;52.190;21.226;2023-06-10T03:26:03;100382.48;;;15.58;100.00
43691;BME280;29293;52.190;21.226;2023-06-10T03:41:10;100397.68;;;15.72;100.00
43691;BME280;29293;52.190;21.226;2023-06-10T03:56:17;100400.13;;;15.98;100.00
43691;BME280;29293;52.190;21.226;2023-06-10T04:11:24;100412.25;;;16.26;100.00
43691;BME280;29293;52.190;21.226;2023-06-10T04:26:31;100423.42;;;16.36;100.00
43691;BME280;29293;52.190;21.226;2023-06-10T04:41:39;100427.96;;;16.43;100.00
43691;BME280;29293;52.190;21.226;2023-06-10T04:56:45;100431.73;;;16.79;100.00
43691;BME280;29293;52.190;21.226;2023-06-10T05:11:53;100439.84;;;17.19;100.00
43691;BME280;29293;52.190;21.226;2023-06-10T05:26:59;100449.11;;;17.62;100.00
43691;BME280;29293;52.190;21.226;2023-06-10T05:42:08;100449.38;;;18.15;100.00
43691;BME280;29293;52.190;21.226;2023-06-10T05:57:15;100456.06;;;18.45;100.00
43691;BME280;29293;52.190;21.226;2023-06-10T06:12:22;100451.20;;;18.63;100.00
43691;BME280;29293;52.190;21.226;2023-06-10T06:27:29;100450.56;;;18.85;100.00
43691;BME280;29293;52.190;21.226;2023-06-10T06:42:36;100450.23;;;19.26;100.00
43691;BME280;29293;52.190;21.226;2023-06-10T06:57:43;100451.46;;;20.46;96.54
43691;BME280;29293;52.190;21.226;2023-06-10T07:12:49;100462.00;;;21.63;83.47
43691;BME280;29293;52.190;21.226;2023-06-10T07:27:56;100467.83;;;22.04;73.90
43691;BME280;29293;52.190;21.226;2023-06-10T07:43:03;100467.15;;;22.49;69.17
43691;BME280;29293;52.190;21.226;2023-06-10T07:58:10;100476.08;;;22.61;65.99
43691;BME280;29293;52.190;21.226;2023-06-10T08:13:17;100483.23;;;23.00;63.91
43691;BME280;29293;52.190;21.226;2023-06-10T08:28:24;100486.64;;;23.13;61.32
43691;BME280;29293;52.190;21.226;2023-06-10T08:43:33;100491.36;;;23.33;60.13
43691;BME280;29293;52.190;21.226;2023-06-10T08:58:40;100502.36;;;23.40;56.30
43691;BME280;29293;52.190;21.226;2023-06-10T09:13:48;100508.84;;;22.96;56.19
43691;BME280;29293;52.190;21.226;2023-06-10T09:29:02;100500.81;;;23.58;54.50
43691;BME280;29293;52.190;21.226;2023-06-10T09:44:13;100511.60;;;23.57;52.06
43691;BME280;29293;52.190;21.226;2023-06-10T09:59:31;100515.48;;;23.62;52.48
43691;BME280;29293;52.190;21.226;2023-06-10T10:14:38;100507.85;;;24.10;52.72
43691;BME280;29293;52.190;21.226;2023-06-10T10:29:56;100498.81;;;24.16;51.91
43691;BME280;29293;52.190;21.226;2023-06-10T10:45:12;100500.18;;;24.33;50.72
43691;BME280;29293;52.190;21.226;2023-06-10T11:00:28;100499.73;;;24.89;51.13
43691;BME280;29293;52.190;21.226;2023-06-10T11:15:42;100499.55;;;24.88;51.57
43691;BME280;29293;52.190;21.226;2023-06-10T11:30:58;100487.04;;;25.17;52.67
43691;BME280;29293;52.190;21.226;2023-06-10T11:46:05;100491.02;;;24.73;53.47
43691;BME280;29293;52.190;21.226;2023-06-10T12:01:20;100487.52;;;25.10;54.55
43691;BME280;29293;52.190;21.226;2023-06-10T12:16:28;100477.13;;;25.09;54.96
43691;BME280;29293;52.190;21.226;2023-06-10T12:31:56;100476.75;;;24.92;55.61
43691;BME280;29293;52.190;21.226;2023-06-10T12:47:08;100473.06;;;25.15;56.14
43691;BME280;29293;52.190;21.226;2023-06-10T13:02:21;100459.30;;;26.10;53.71
43691;BME280;29293;52.190;21.226;2023-06-10T13:17:29;100451.15;;;25.61;53.80
43691;BME280;29293;52.190;21.226;2023-06-10T13:32:36;100438.83;;;24.84;55.66
43691;BME280;29293;52.190;21.226;2023-06-10T13:47:43;100432.02;;;25.38;54.60
43691;BME280;29293;52.190;21.226;2023-06-10T14:02:50;100441.20;;;24.44;55.83
43691;BME280;29293;52.190;21.226;2023-06-10T14:17:57;100439.06;;;24.94;54.85
43691;BME280;29293;52.190;21.226;2023-06-10T14:33:03;100426.96;;;24.66;54.68
43691;BME280;29293;52.190;21.226;2023-06-10T14:48:11;100420.38;;;24.59;54.26
43691;BME280;29293;52.190;21.226;2023-06-10T15:03:18;100424.00;;;24.69;55.79
43691;BME280;29293;52.190;21.226;2023-06-10T15:18:24;100431.56;;;24.57;55.28
43691;BME280;29293;52.190;21.226;2023-06-10T15:33:31;100440.98;;;24.09;55.77
43691;BME280;29293;52.190;21.226;2023-06-10T15:48:38;100448.72;;;24.00;55.33
43691;BME280;29293;52.190;21.226;2023-06-10T16:03:45;100457.35;;;23.57;56.08
43691;BME280;29293;52.190;21.226;2023-06-10T16:18:52;100461.18;;;23.02;58.12
43691;BME280;29293;52.190;21.226;2023-06-10T16:34:04;100470.64;;;22.87;59.54
43691;BME280;29293;52.190;21.226;2023-06-10T17:19:23;100500.77;;;22.95;57.35
43691;BME280;29293;52.190;21.226;2023-06-10T17:34:35;100526.71;;;22.52;57.96
43691;BME280;29293;52.190;21.226;2023-06-10T17:49:43;100545.41;;;22.00;62.41
43691;BME280;29293;52.190;21.226;2023-06-10T18:04:51;100567.88;;;21.34;66.02
43691;BME280;29293;52.190;21.226;2023-06-10T18:19:58;100583.45;;;20.82;69.56
43691;BME280;29293;52.190;21.226;2023-06-10T18:35:06;100603.82;;;20.33;73.41
43691;BME280;29293;52.190;21.226;2023-06-10T18:50:13;100622.06;;;19.89;77.11
43691;BME280;29293;52.190;21.226;2023-06-10T19:05:20;100640.29;;;19.43;82.25
43691;BME280;29293;52.190;21.226;2023-06-10T19:20:28;100663.08;;;19.09;87.99
43691;BME280;29293;52.190;21.226;2023-06-10T19:35:35;100673.92;;;18.51;96.31
43691;BME280;29293;52.190;21.226;2023-06-10T19:50:42;100683.97;;;17.96;100.00
43691;BME280;29293;52.190;21.226;2023-06-10T20:05:49;100698.73;;;17.35;100.00
43691;BME280;29293;52.190;21.226;2023-06-10T20:20:57;100709.96;;;16.84;100.00
43691;BME280;29293;52.190;21.226;2023-06-10T20:36:05;100711.00;;;16.67;100.00
43691;BME280;29293;52.190;21.226;2023-06-10T20:51:12;100714.91;;;16.54;100.00
43691;BME280;29293;52.190;21.226;2023-06-10T21:06:19;100712.59;;;16.28;100.00
43691;BME280;29293;52.190;21.226;2023-06-10T21:21:27;100724.43;;;15.96;100.00
43691;BME280;29293;52.190;21.226;2023-06-10T21:36:34;100738.27;;;15.65;100.00
43691;BME280;29293;52.190;21.226;2023-06-10T21:51:41;100746.83;;;15.57;100.00
43691;BME280;29293;52.190;21.226;2023-06-10T22:06:48;100751.83;;;15.56;100.00
43691;BME280;29293;52.190;21.226;2023-06-10T22:21:55;100765.19;;;15.45;100.00
43691;BME280;29293;52.190;21.226;2023-06-10T22:37:05;100771.93;;;15.38;100.00
43691;BME280;29293;52.190;21.226;2023-06-10T22:52:12;100774.57;;;15.30;100.00
43691;BME280;29293;52.190;21.226;2023-06-10T23:07:18;100778.62;;;15.13;100.00
43691;BME280;29293;52.190;21.226;2023-06-10T23:22:26;100783.70;;;15.07;100.00
43691;BME280;29293;52.190;21.226;2023-06-10T23:37:36;100777.11;;;14.96;100.00
43691;BME280;29293;52.190;21.226;2023-06-10T23:52:43;100774.59;;;14.70;100.00
